sensor_id;sensor_type;location;lat;lon;timestamp;P1;durP1;ratioP1;P2;durP2;ratioP2
14153;SDS011;7157;53.144;7.570;2023-06-26T00:08:38;11.05;;;8.90;;
14153;SDS011;7157;53.144;7.570;2023-06-26T00:18:42;12.13;;;9.00;;
14153;SDS011;7157;53.144;7.570;2023-06-26T00:28:45;12.93;;;9.15;;
14153;SDS011;7157;53.144;7.570;2023-06-26T00:38:49;12.38;;;9.45;;
14153;SDS011;7157;53.144;7.570;2023-06-26T00:48:52;12.90;;;9.23;;
14153;SDS011;7157;53.144;7.570;2023-06-26T00:58:57;13.95;;;10.23;;
14153;SDS011;7157;53.144;7.570;2023-06-26T01:09:00;15.95;;;10.00;;
14153;SDS011;7157;53.144;7.570;2023-06-26T01:19:05;15.63;;;9.57;;
14153;SDS011;7157;53.144;7.570;2023-06-26T01:29:14;14.48;;;9.73;;
14153;SDS011;7157;53.144;7.570;2023-06-26T01:39:19;15.48;;;9.65;;
14153;SDS011;7157;53.144;7.570;2023-06-26T01:49:25;13.35;;;9.23;;
14153;SDS011;7157;53.144;7.570;2023-06-26T01:59:35;13.45;;;9.18;;
14153;SDS011;7157;53.144;7.570;2023-06-26T02:09:42;11.57;;;8.43;;
14153;SDS011;7157;53.144;7.570;2023-06-26T02:19:45;13.50;;;8.50;;
14153;SDS011;7157;53.144;7.570;2023-06-26T02:29:49;12.95;;;8.73;;
14153;SDS011;7157;53.144;7.570;2023-06-26T02:39:52;12.02;;;8.70;;
14153;SDS011;7157;53.144;7.570;2023-06-26T02:49:56;12.35;;;8.93;;
14153;SDS011;7157;53.144;7.570;2023-06-26T02:59:59;11.30;;;8.70;;
14153;SDS011;7157;53.144;7.570;2023-06-26T03:10:03;11.23;;;8.57;;
14153;SDS011;7157;53.144;7.570;2023-06-26T03:20:07;14.73;;;9.38;;
14153;SDS011;7157;53.144;7.570;2023-06-26T03:30:13;15.25;;;9.10;;
14153;SDS011;7157;53.144;7.570;2023-06-26T03:40:16;16.20;;;9.35;;
14153;SDS011;7157;53.144;7.570;2023-06-26T03:50:20;13.45;;;10.05;;
14153;SDS011;7157;53.144;7.570;2023-06-26T04:00:23;15.82;;;9.85;;
14153;SDS011;7157;53.144;7.570;2023-06-26T04:10:27;18.35;;;9.80;;
14153;SDS011;7157;53.144;7.570;2023-06-26T04:20:30;13.40;;;9.50;;
14153;SDS011;7157;53.144;7.570;2023-06-26T04:30:34;17.25;;;9.43;;
14153;SDS011;7157;53.144;7.570;2023-06-26T04:40:37;12.93;;;9.15;;
14153;SDS011;7157;53.144;7.570;2023-06-26T04:50:42;15.75;;;9.30;;
14153;SDS011;7157;53.144;7.570;2023-06-26T05:00:44;16.88;;;9.13;;
14153;SDS011;7157;53.144;7.570;2023-06-26T05:10:49;14.63;;;8.48;;
14153;SDS011;7157;53.144;7.570;2023-06-26T05:20:54;15.02;;;8.90;;
14153;SDS011;7157;53.144;7.570;2023-06-26T05:30:59;15.82;;;8.90;;
14153;SDS011;7157;53.144;7.570;2023-06-26T05:41:02;13.88;;;8.93;;
14153;SDS011;7157;53.144;7.570;2023-06-26T05:51:07;12.07;;;7.95;;
14153;SDS011;7157;53.144;7.570;2023-06-26T06:01:11;11.70;;;7.88;;
14153;SDS011;7157;53.144;7.570;2023-06-26T06:11:15;11.10;;;7.10;;
14153;SDS011;7157;53.144;7.570;2023-06-26T06:21:17;12.52;;;7.95;;
14153;SDS011;7157;53.144;7.570;2023-06-26T06:31:21;15.63;;;6.93;;
14153;SDS011;7157;53.144;7.570;2023-06-26T06:41:24;12.65;;;6.72;;
14153;SDS011;7157;53.144;7.570;2023-06-26T06:51:28;25.92;;;8.52;;
14153;SDS011;7157;53.144;7.570;2023-06-26T07:01:31;17.35;;;9.15;;
14153;SDS011;7157;53.144;7.570;2023-06-26T07:11:35;19.48;;;10.63;;
14153;SDS011;7157;53.144;7.570;2023-06-26T07:21:38;17.55;;;8.43;;
14153;SDS011;7157;53.144;7.570;2023-06-26T07:31:43;12.45;;;4.60;;
14153;SDS011;7157;53.144;7.570;2023-06-26T07:41:47;11.52;;;4.00;;
14153;SDS011;7157;53.144;7.570;2023-06-26T07:51:51;9.57;;;2.90;;
14153;SDS011;7157;53.144;7.570;2023-06-26T08:01:54;9.20;;;2.25;;
14153;SDS011;7157;53.144;7.570;2023-06-26T08:12:00;9.93;;;2.10;;
14153;SDS011;7157;53.144;7.570;2023-06-26T08:22:03;8.15;;;2.10;;
14153;SDS011;7157;53.144;7.570;2023-06-26T08:32:07;7.63;;;2.20;;
14153;SDS011;7157;53.144;7.570;2023-06-26T08:42:10;10.32;;;2.13;;
14153;SDS011;7157;53.144;7.570;2023-06-26T08:52:17;5.05;;;1.58;;
14153;SDS011;7157;53.144;7.570;2023-06-26T09:02:24;7.32;;;1.60;;
14153;SDS011;7157;53.144;7.570;2023-06-26T09:12:29;5.93;;;1.92;;
14153;SDS011;7157;53.144;7.570;2023-06-26T09:22:35;7.38;;;1.30;;
14153;SDS011;7157;53.144;7.570;2023-06-26T09:32:41;5.03;;;1.30;;
14153;SDS011;7157;53.144;7.570;2023-06-26T09:42:43;4.70;;;1.73;;
14153;SDS011;7157;53.144;7.570;2023-06-26T09:52:47;5.15;;;1.35;;
14153;SDS011;7157;53.144;7.570;2023-06-26T10:02:53;6.18;;;1.73;;
14153;SDS011;7157;53.144;7.570;2023-06-26T10:12:59;7.30;;;1.58;;
14153;SDS011;7157;53.144;7.570;2023-06-26T10:23:06;4.65;;;1.38;;
14153;SDS011;7157;53.144;7.570;2023-06-26T10:33:11;6.35;;;1.50;;
14153;SDS011;7157;53.144;7.570;2023-06-26T10:43:15;8.63;;;2.00;;
14153;SDS011;7157;53.144;7.570;2023-06-26T10:53:24;6.68;;;1.63;;
14153;SDS011;7157;53.144;7.570;2023-06-26T11:03:29;5.38;;;1.77;;
14153;SDS011;7157;53.144;7.570;2023-06-26T11:13:34;5.88;;;1.67;;
14153;SDS011;7157;53.144;7.570;2023-06-26T11:23:37;6.75;;;1.70;;
14153;SDS011;7157;53.144;7.570;2023-06-26T11:33:46;6.38;;;1.50;;
14153;SDS011;7157;53.144;7.570;2023-06-26T11:43:49;2.88;;;1.45;;
14153;SDS011;7157;53.144;7.570;2023-06-26T11:53:55;4.18;;;1.60;;
14153;SDS011;7157;53.144;7.570;2023-06-26T12:03:58;5.97;;;1.65;;
14153;SDS011;7157;53.144;7.570;2023-06-26T12:14:05;5.25;;;1.30;;
14153;SDS011;7157;53.144;7.570;2023-06-26T12:24:10;7.10;;;2.03;;
14153;SDS011;7157;53.144;7.570;2023-06-26T12:34:18;6.85;;;1.90;;
14153;SDS011;7157;53.144;7.570;2023-06-26T12:44:24;5.35;;;2.05;;
14153;SDS011;7157;53.144;7.570;2023-06-26T12:54:29;6.03;;;1.58;;
14153;SDS011;7157;53.144;7.570;2023-06-26T13:04:33;9.45;;;1.50;;
14153;SDS011;7157;53.144;7.570;2023-06-26T13:14:37;7.13;;;1.15;;
14153;SDS011;7157;53.144;7.570;2023-06-26T13:24:40;6.90;;;1.42;;
14153;SDS011;7157;53.144;7.570;2023-06-26T13:34:44;6.85;;;1.45;;
14153;SDS011;7157;53.144;7.570;2023-06-26T13:44:47;6.25;;;1.27;;
14153;SDS011;7157;53.144;7.570;2023-06-26T13:55:03;8.02;;;1.60;;
14153;SDS011;7157;53.144;7.570;2023-06-26T14:05:06;8.65;;;1.58;;
14153;SDS011;7157;53.144;7.570;2023-06-26T14:15:11;8.20;;;1.10;;
14153;SDS011;7157;53.144;7.570;2023-06-26T14:25:14;4.68;;;1.08;;
14153;SDS011;7157;53.144;7.570;2023-06-26T14:35:19;11.00;;;1.40;;
14153;SDS011;7157;53.144;7.570;2023-06-26T14:45:22;4.20;;;1.02;;
14153;SDS011;7157;53.144;7.570;2023-06-26T14:55:27;7.00;;;1.35;;
14153;SDS011;7157;53.144;7.570;2023-06-26T15:05:29;4.35;;;1.40;;
14153;SDS011;7157;53.144;7.570;2023-06-26T15:15:34;13.75;;;2.03;;
14153;SDS011;7157;53.144;7.570;2023-06-26T15:25:37;6.25;;;2.05;;
14153;SDS011;7157;53.144;7.570;2023-06-26T15:35:42;5.25;;;1.50;;
14153;SDS011;7157;53.144;7.570;2023-06-26T15:45:45;5.28;;;1.70;;
14153;SDS011;7157;53.144;7.570;2023-06-26T15:55:49;5.32;;;1.40;;
14153;SDS011;7157;53.144;7.570;2023-06-26T16:05:52;11.15;;;1.80;;
14153;SDS011;7157;53.144;7.570;2023-06-26T16:15:56;6.45;;;1.67;;
14153;SDS011;7157;53.144;7.570;2023-06-26T16:25:58;7.53;;;1.80;;
14153;SDS011;7157;53.144;7.570;2023-06-26T16:36:02;10.63;;;2.75;;
14153;SDS011;7157;53.144;7.570;2023-06-26T16:46:06;6.97;;;1.75;;
14153;SDS011;7157;53.144;7.570;2023-06-26T16:56:10;5.70;;;1.60;;
14153;SDS011;7157;53.144;7.570;2023-06-26T17:06:12;9.68;;;2.00;;
14153;SDS011;7157;53.144;7.570;2023-06-26T17:16:17;11.32;;;2.05;;
14153;SDS011;7157;53.144;7.570;2023-06-26T17:26:19;7.55;;;1.67;;
14153;SDS011;7157;53.144;7.570;2023-06-26T17:36:23;5.85;;;1.50;;
14153;SDS011;7157;53.144;7.570;2023-06-26T17:46:26;8.32;;;1.80;;
14153;SDS011;7157;53.144;7.570;2023-06-26T17:56:31;5.15;;;1.30;;
14153;SDS011;7157;53.144;7.570;2023-06-26T18:06:34;12.93;;;1.60;;
14153;SDS011;7157;53.144;7.570;2023-06-26T18:16:38;7.78;;;1.50;;
14153;SDS011;7157;53.144;7.570;2023-06-26T18:26:40;9.13;;;1.65;;
14153;SDS011;7157;53.144;7.570;2023-06-26T18:36:45;15.25;;;1.80;;
14153;SDS011;7157;53.144;7.570;2023-06-26T18:46:49;8.52;;;1.50;;
14153;SDS011;7157;53.144;7.570;2023-06-26T18:56:53;6.45;;;1.30;;
14153;SDS011;7157;53.144;7.570;2023-06-26T19:06:56;5.28;;;1.33;;
14153;SDS011;7157;53.144;7.570;2023-06-26T19:17:00;6.35;;;1.60;;
14153;SDS011;7157;53.144;7.570;2023-06-26T19:27:04;5.63;;;1.20;;
14153;SDS011;7157;53.144;7.570;2023-06-26T19:37:08;6.35;;;1.25;;
14153;SDS011;7157;53.144;7.570;2023-06-26T19:47:11;11.02;;;1.40;;
14153;SDS011;7157;53.144;7.570;2023-06-26T19:57:16;8.20;;;1.55;;
14153;SDS011;7157;53.144;7.570;2023-06-26T20:07:18;7.35;;;1.58;;
14153;SDS011;7157;53.144;7.570;2023-06-26T20:17:23;5.15;;;1.52;;
14153;SDS011;7157;53.144;7.570;2023-06-26T20:27:26;9.48;;;1.60;;
14153;SDS011;7157;53.144;7.570;2023-06-26T20:37:30;9.63;;;1.80;;
14153;SDS011;7157;53.144;7.570;2023-06-26T20:47:33;9.27;;;1.77;;
14153;SDS011;7157;53.144;7.570;2023-06-26T20:57:44;11.55;;;1.50;;
14153;SDS011;7157;53.144;7.570;2023-06-26T21:07:47;10.70;;;1.27;;
14153;SDS011;7157;53.144;7.570;2023-06-26T21:17:51;6.50;;;1.60;;
14153;SDS011;7157;53.144;7.570;2023-06-26T21:27:53;12.43;;;2.15;;
14153;SDS011;7157;53.144;7.570;2023-06-26T21:37:57;7.82;;;2.08;;
14153;SDS011;7157;53.144;7.570;2023-06-26T21:48:00;8.52;;;2.05;;
14153;SDS011;7157;53.144;7.570;2023-06-26T21:58:05;8.82;;;2.15;;
14153;SDS011;7157;53.144;7.570;2023-06-26T22:08:07;7.53;;;2.47;;
14153;SDS011;7157;53.144;7.570;2023-06-26T22:18:13;11.82;;;2.05;;
14153;SDS011;7157;53.144;7.570;2023-06-26T22:28:17;10.32;;;1.88;;
14153;SDS011;7157;53.144;7.570;2023-06-26T22:38:21;10.30;;;1.90;;
14153;SDS011;7157;53.144;7.570;2023-06-26T22:48:24;7.22;;;2.35;;
14153;SDS011;7157;53.144;7.570;2023-06-26T22:58:29;7.57;;;1.52;;
14153;SDS011;7157;53.144;7.570;2023-06-26T23:08:32;8.98;;;2.05;;
14153;SDS011;7157;53.144;7.570;2023-06-26T23:18:37;7.50;;;1.90;;
14153;SDS011;7157;53.144;7.570;2023-06-26T23:28:40;6.75;;;1.88;;
14153;SDS011;7157;53.144;7.570;2023-06-26T23:38:44;11.27;;;2.70;;
14153;SDS011;7157;53.144;7.570;2023-06-26T23:48:47;9.07;;;1.77;;
14153;SDS011;7157;53.144;7.570;2023-06-26T23:58:51;7.18;;;1.70;;
